Time;durP1;ratioP1;P1;durP2;ratioP2;P2;SDS_P1;SDS_P2;PMS_P1;PMS_P2;Temp;Humidity;BMP_temperature;BMP_pressure;BME280_temperature;BME280_humidity;BME280_pressure;Samples;Min_cycle;Max_cycle;Signal;HPM_P1;HPM_P2
2021/12/17 00:04:37;;;;;;;7.80;5.43;;;;;;;;;;5031628;28;20043;-80
2021/12/17 00:07:05;;;;;;;7.65;5.38;;;;;;;;;;5031568;28;20057;-76
2021/12/17 00:09:33;;;;;;;7.03;5.45;;;;;;;;;;5031788;28;20096;-80
2021/12/17 00:12:00;;;;;;;8.75;4.72;;;;;;;;;;5028868;28;20059;-80
2021/12/17 00:14:35;;;;;;;10.98;5.22;;;;;;;;;;5031624;28;20777;-76
2021/12/17 00:17:05;;;;;;;9.75;5.03;;;;;;;;;;5047604;28;20504;-79
2021/12/17 00:50:17;;;;;;;8.70;4.57;;;;;;;;;;5053052;28;20056;-83
2021/12/17 00:52:45;;;;;;;9.00;5.05;;;;;;;;;;5019047;28;20526;-78
2021/12/17 00:55:12;;;;;;;7.65;4.70;;;;;;;;;;5034646;28;20041;-82
2021/12/17 00:57:42;;;;;;;9.63;5.22;;;;;;;;;;5053174;28;20047;-81
2021/12/17 01:00:17;;;;;;;8.98;4.75;;;;;;;;;;5018667;28;20510;-77
2021/12/17 01:02:47;;;;;;;7.43;4.93;;;;;;;;;;5034916;28;20037;-78
2021/12/17 01:05:21;;;;;;;6.43;4.63;;;;;;;;;;5035088;28;20048;-82
2021/12/17 01:07:51;;;;;;;12.15;4.97;;;;;;;;;;5034856;28;20048;-83
2021/12/17 01:10:22;;;;;;;8.00;4.97;;;;;;;;;;5019314;28;20064;-82
2021/12/17 01:12:59;;;;;;;8.35;4.63;;;;;;;;;;5035243;28;20446;-83
2021/12/17 01:15:59;;;;;;;8.35;4.25;;;;;;;;;;5022770;28;20132;-78
2021/12/17 01:18:51;;;;;;;6.50;4.55;;;;;;;;;;5019609;28;20041;-82
2021/12/17 01:36:17;;;;;;;7.40;3.85;;;;;;;;;;5029128;28;20052;-78
2021/12/17 01:44:13;;;;;;;6.85;4.15;;;;;;;;;;5034357;28;20052;-83
2021/12/17 01:46:42;;;;;;;5.80;3.58;;;;;;;;;;5034822;28;20049;-78
2021/12/17 01:59:53;;;;;;;;;;;;;;;;;;5035213;28;20506;-82
2021/12/17 02:02:21;;;;;;;5.18;3.78;;;;;;;;;;5052344;28;20291;-83
2021/12/17 02:04:49;;;;;;;5.28;3.65;;;;;;;;;;5034791;28;20128;-81
2021/12/17 02:07:16;;;;;;;6.10;3.63;;;;;;;;;;5034169;28;20041;-78
2021/12/17 02:29:02;;;;;;;6.72;4.38;;;;;;;;;;5055599;28;20459;-83
2021/12/17 02:31:32;;;;;;;3.83;2.97;;;;;;;;;;5021822;28;20055;-81
2021/12/17 02:34:51;;;;;;;5.70;3.33;;;;;;;;;;5037883;28;20041;-82
2021/12/17 02:37:01;;;;;;;4.95;3.50;;;;;;;;;;5037366;28;20553;-78
2021/12/17 02:45:33;;;;;;;3.53;3.22;;;;;;;;;;4993274;28;20553;-83
2021/12/17 02:48:00;;;;;;;3.20;2.90;;;;;;;;;;4993740;28;20050;-77
2021/12/17 02:50:30;;;;;;;5.20;3.10;;;;;;;;;;4978124;28;20050;-82
2021/12/17 02:53:00;;;;;;;3.65;2.97;;;;;;;;;;4994094;28;20056;-83
2021/12/17 02:55:29;;;;;;;3.47;2.85;;;;;;;;;;4993630;28;20056;-81
2021/12/17 02:57:58;;;;;;;7.57;4.00;;;;;;;;;;4993831;28;20084;-83
2021/12/17 03:00:28;;;;;;;5.80;3.30;;;;;;;;;;4993213;28;20066;-81
2021/12/17 03:02:57;;;;;;;3.92;3.53;;;;;;;;;;4993997;28;20133;-83
2021/12/17 03:05:26;;;;;;;5.15;3.40;;;;;;;;;;4977793;28;20102;-81
2021/12/17 03:07:54;;;;;;;5.38;3.50;;;;;;;;;;4977094;28;20494;-80
2021/12/17 03:10:23;;;;;;;4.63;3.33;;;;;;;;;;4977387;28;20105;-83
2021/12/17 03:12:56;;;;;;;4.72;3.28;;;;;;;;;;4993582;28;20520;-83
2021/12/17 03:23:32;;;;;;;6.25;3.10;;;;;;;;;;5035027;28;20399;-83
2021/12/17 03:26:04;;;;;;;5.25;3.42;;;;;;;;;;5017159;28;20045;-78
2021/12/17 03:28:32;;;;;;;4.30;3.13;;;;;;;;;;5034934;28;20041;-81
2021/12/17 03:31:01;;;;;;;4.75;3.17;;;;;;;;;;5016718;28;20489;-82
2021/12/17 03:33:31;;;;;;;6.60;3.20;;;;;;;;;;5000915;28;20044;-81
2021/12/17 03:35:59;;;;;;;6.80;3.10;;;;;;;;;;5000714;28;20045;-82
2021/12/17 03:38:27;;;;;;;3.97;3.38;;;;;;;;;;5000742;28;20068;-82
2021/12/17 03:41:10;;;;;;;4.55;3.45;;;;;;;;;;5034564;28;20091;-83
2021/12/17 03:43:46;;;;;;;6.22;3.15;;;;;;;;;;5016763;28;20038;-81
2021/12/17 03:46:13;;;;;;;8.95;3.22;;;;;;;;;;5000542;28;20073;-83
2021/12/17 03:48:42;;;;;;;3.45;2.75;;;;;;;;;;5000596;28;20501;-81
2021/12/17 03:51:14;;;;;;;3.00;2.70;;;;;;;;;;5016803;28;20052;-78
2021/12/17 03:53:48;;;;;;;3.05;2.80;;;;;;;;;;5000560;28;20045;-81
2021/12/17 03:56:16;;;;;;;3.70;3.07;;;;;;;;;;5016495;28;20419;-83
2021/12/17 03:58:43;;;;;;;4.72;2.60;;;;;;;;;;5000538;28;20080;-81
2021/12/17 04:01:12;;;;;;;2.95;2.65;;;;;;;;;;5016784;28;20114;-78
2021/12/17 04:03:40;;;;;;;3.05;2.58;;;;;;;;;;5016356;28;20050;-83
2021/12/17 04:06:19;;;;;;;8.00;3.17;;;;;;;;;;5001897;28;20049;-83
2021/12/17 04:08:47;;;;;;;12.55;3.00;;;;;;;;;;5034047;28;20120;-82
2021/12/17 04:11:23;;;;;;;5.07;3.10;;;;;;;;;;5034602;28;20045;-83
2021/12/17 04:13:59;;;;;;;5.78;3.47;;;;;;;;;;5001053;28;20538;-78
2021/12/17 04:16:33;;;;;;;8.07;3.67;;;;;;;;;;5016317;28;20053;-81
2021/12/17 04:19:00;;;;;;;4.25;3.05;;;;;;;;;;5015812;28;20105;-81
2021/12/17 04:21:32;;;;;;;7.18;3.33;;;;;;;;;;5016287;28;20051;-81
2021/12/17 04:24:00;;;;;;;8.55;3.30;;;;;;;;;;5016461;28;20068;-83
2021/12/17 04:26:28;;;;;;;5.88;3.20;;;;;;;;;;5016332;28;20068;-78
2021/12/17 04:29:08;;;;;;;5.85;3.33;;;;;;;;;;5016431;28;20049;-83
2021/12/17 04:31:37;;;;;;;9.10;4.00;;;;;;;;;;4999710;28;20050;-78
2021/12/17 04:34:08;;;;;;;6.25;3.25;;;;;;;;;;5016013;28;20489;-83
2021/12/17 04:36:37;;;;;;;4.63;3.00;;;;;;;;;;4999712;28;20053;-82
2021/12/17 04:39:17;;;;;;;5.20;3.03;;;;;;;;;;5015661;28;20046;-83
2021/12/17 04:44:33;;;;;;;4.32;2.80;;;;;;;;;;5015812;28;20058;-83
2021/12/17 04:58:08;;;;;;;13.23;4.25;;;;;;;;;;5015673;28;20049;-82
2021/12/17 05:00:37;;;;;;;10.50;3.50;;;;;;;;;;4999759;28;20451;-81
2021/12/17 05:03:11;;;;;;;16.48;4.13;;;;;;;;;;5015800;28;20088;-83
2021/12/17 05:05:41;;;;;;;12.15;4.15;;;;;;;;;;5015949;28;20099;-81
2021/12/17 05:08:19;;;;;;;8.48;3.50;;;;;;;;;;5000450;28;20045;-82
2021/12/17 05:11:16;;;;;;;6.75;3.08;;;;;;;;;;5015731;28;20046;-83
2021/12/17 05:22:08;;;;;;;6.32;3.30;;;;;;;;;;4956120;28;20047;-83
2021/12/17 05:24:36;;;;;;;4.25;2.90;;;;;;;;;;4971103;28;20042;-82
2021/12/17 05:27:06;;;;;;;5.70;2.90;;;;;;;;;;4971742;28;20089;-78
2021/12/17 05:29:41;;;;;;;3.60;2.95;;;;;;;;;;4956112;28;20178;-83
2021/12/17 05:32:09;;;;;;;6.03;2.90;;;;;;;;;;4971522;28;20055;-83
2021/12/17 05:34:37;;;;;;;10.35;4.32;;;;;;;;;;4956133;28;20051;-83
2021/12/17 05:37:10;;;;;;;;;;;;;;;;;;4957191;28;20055;-77
2021/12/17 05:39:37;;;;;;;8.93;3.97;;;;;;;;;;4971672;28;20464;-77
2021/12/17 05:42:08;;;;;;;12.43;3.97;;;;;;;;;;4971425;28;20134;-78
2021/12/17 05:44:45;;;;;;;8.65;3.97;;;;;;;;;;4955511;28;20066;-78
2021/12/17 05:47:13;;;;;;;9.23;3.80;;;;;;;;;;4985645;28;20046;-83
2021/12/17 05:49:42;;;;;;;7.20;4.10;;;;;;;;;;5020630;28;20053;-83
2021/12/17 05:52:09;;;;;;;10.90;3.70;;;;;;;;;;5055521;28;20051;-78
2021/12/17 05:54:37;;;;;;;9.00;4.00;;;;;;;;;;5038213;28;20049;-83
2021/12/17 05:57:07;;;;;;;8.30;4.20;;;;;;;;;;5037900;28;20095;-78
2021/12/17 05:59:37;;;;;;;8.43;4.05;;;;;;;;;;5038602;28;20086;-82
2021/12/17 06:02:11;;;;;;;10.73;3.97;;;;;;;;;;5038277;28;20049;-79
2021/12/17 06:04:46;;;;;;;8.10;3.67;;;;;;;;;;5038755;28;20045;-79
2021/12/17 06:07:17;;;;;;;4.70;3.45;;;;;;;;;;5038408;28;20045;-76
2021/12/17 06:09:48;;;;;;;12.10;3.63;;;;;;;;;;5037971;28;20524;-79
2021/12/17 06:12:20;;;;;;;5.50;3.88;;;;;;;;;;5037534;28;20037;-79
2021/12/17 06:14:50;;;;;;;5.38;4.50;;;;;;;;;;5037501;28;20049;-77
2021/12/17 06:20:19;;;;;;;3.97;3.58;;;;;;;;;;5037305;28;20069;-76
2021/12/17 06:22:52;;;;;;;5.45;3.83;;;;;;;;;;5036335;28;20041;-79
2021/12/17 06:25:21;;;;;;;4.55;3.80;;;;;;;;;;5020654;28;20037;-76
2021/12/17 06:27:49;;;;;;;5.85;3.90;;;;;;;;;;5036513;28;20099;-79
2021/12/17 06:30:20;;;;;;;7.60;4.05;;;;;;;;;;5050839;28;20045;-77
2021/12/17 06:32:48;;;;;;;10.18;5.50;;;;;;;;;;5029724;28;20571;-77
2021/12/17 06:35:23;;;;;;;10.95;5.05;;;;;;;;;;5032118;28;20039;-78
2021/12/17 06:37:52;;;;;;;9.85;5.95;;;;;;;;;;5033588;28;20040;-77
2021/12/17 06:40:31;;;;;;;14.60;6.80;;;;;;;;;;5035443;28;20049;-78
2021/12/17 06:43:01;;;;;;;15.35;7.13;;;;;;;;;;5034129;28;20044;-77
2021/12/17 06:45:51;;;;;;;15.93;7.43;;;;;;;;;;5036209;28;20056;-77
2021/12/17 06:48:25;;;;;;;21.70;7.32;;;;;;;;;;5049914;28;20131;-77
2021/12/17 06:57:49;;;;;;;100.07;10.57;;;;;;;;;;5053502;28;20040;-75
2021/12/17 07:17:11;;;;;;;131.07;14.82;;;;;;;;;;5035025;28;20508;-76
2021/12/17 07:17:49;;;;;;;10.18;4.65;;;;;;;;;;5034568;28;20052;-77
2021/12/17 07:30:53;;;;;;;169.23;15.85;;;;;;;;;;5034442;28;20068;-77
2021/12/17 07:32:38;;;;;;;15.93;5.80;;;;;;;;;;5049199;28;20060;-77
2021/12/17 07:40:32;;;;;;;7.80;3.80;;;;;;;;;;5033793;28;20037;-78
2021/12/17 07:43:10;;;;;;;9.18;3.65;;;;;;;;;;5034535;28;20049;-78
2021/12/17 07:45:50;;;;;;;9.27;3.10;;;;;;;;;;5031573;28;20045;-77
2021/12/17 07:48:27;;;;;;;7.95;3.08;;;;;;;;;;5032051;28;20049;-77
2021/12/17 07:51:18;;;;;;;7.00;3.05;;;;;;;;;;5035899;28;20065;-78
2021/12/17 07:54:07;;;;;;;7.80;2.88;;;;;;;;;;5032449;28;20500;-77
2021/12/17 07:56:40;;;;;;;3.88;2.95;;;;;;;;;;5014950;28;20079;-77
2021/12/17 07:59:18;;;;;;;4.93;3.25;;;;;;;;;;5031987;28;20057;-78
2021/12/17 08:01:48;;;;;;;13.35;3.60;;;;;;;;;;5015815;28;20072;-78
2021/12/17 08:04:31;;;;;;;7.32;3.35;;;;;;;;;;5015287;28;20065;-78
2021/12/17 08:07:01;;;;;;;13.95;4.63;;;;;;;;;;5015152;28;20042;-77
2021/12/17 08:09:33;;;;;;;17.07;5.60;;;;;;;;;;5015228;28;20047;-78
2021/12/17 08:12:10;;;;;;;7.28;4.20;;;;;;;;;;5014678;28;20052;-77
2021/12/17 08:14:48;;;;;;;27.73;5.20;;;;;;;;;;5015272;28;20152;-78
2021/12/17 08:31:31;;;;;;;2.53;1.92;;;;;;;;;;4953055;29;20047;-77
2021/12/17 08:33:59;;;;;;;5.93;2.20;;;;;;;;;;4953096;29;20172;-77
2021/12/17 08:36:33;;;;;;;6.32;2.20;;;;;;;;;;4953272;29;20055;-76
2021/12/17 08:39:06;;;;;;;2.13;1.80;;;;;;;;;;4952865;29;20055;-76
2021/12/17 08:41:45;;;;;;;7.88;2.30;;;;;;;;;;4952951;29;20070;-77
2021/12/17 08:44:16;;;;;;;2.88;2.28;;;;;;;;;;4967663;28;20050;-77
2021/12/17 08:47:05;;;;;;;4.40;1.67;;;;;;;;;;4952669;28;20119;-77
2021/12/17 08:49:40;;;;;;;4.90;2.08;;;;;;;;;;4950175;29;20122;-77
2021/12/17 08:52:18;;;;;;;5.18;2.05;;;;;;;;;;4974558;28;20037;-77
2021/12/17 08:54:49;;;;;;;3.80;1.90;;;;;;;;;;4994433;28;20067;-77
2021/12/17 08:57:17;;;;;;;4.25;2.00;;;;;;;;;;4992148;28;20038;-76
2021/12/17 08:59:46;;;;;;;5.07;1.67;;;;;;;;;;4999287;28;20092;-76
2021/12/17 09:02:14;;;;;;;1.92;1.75;;;;;;;;;;5044941;28;20112;-77
2021/12/17 09:05:07;;;;;;;2.58;2.33;;;;;;;;;;5011186;28;20072;-77
2021/12/17 09:07:41;;;;;;;2.13;1.70;;;;;;;;;;5026480;28;20073;-76
2021/12/17 09:10:29;;;;;;;4.15;1.63;;;;;;;;;;5051957;28;20527;-76
2021/12/17 09:12:58;;;;;;;3.83;2.20;;;;;;;;;;5032668;28;20044;-76
2021/12/17 09:15:27;;;;;;;3.45;1.90;;;;;;;;;;5032608;28;20049;-76
2021/12/17 09:18:16;;;;;;;2.20;1.90;;;;;;;;;;5031450;28;20033;-76
2021/12/17 09:20:53;;;;;;;1.90;1.80;;;;;;;;;;5031126;28;20048;-76
2021/12/17 09:23:30;;;;;;;3.33;1.80;;;;;;;;;;5031418;28;20423;-76
2021/12/17 09:26:02;;;;;;;3.63;2.10;;;;;;;;;;5036837;28;20041;-76
2021/12/17 09:28:31;;;;;;;1.75;1.65;;;;;;;;;;5036408;28;20037;-76
2021/12/17 09:31:02;;;;;;;3.92;1.90;;;;;;;;;;5055460;28;20029;-76
2021/12/17 09:33:31;;;;;;;2.40;1.92;;;;;;;;;;5055595;28;20072;-76
2021/12/17 09:36:01;;;;;;;7.90;2.08;;;;;;;;;;5056030;28;20029;-76
2021/12/17 09:38:30;;;;;;;44.93;3.10;;;;;;;;;;5055874;28;20041;-76
2021/12/17 09:40:58;;;;;;;9.18;2.97;;;;;;;;;;5055751;28;20029;-76
2021/12/17 09:43:29;;;;;;;22.33;2.90;;;;;;;;;;5019527;28;20041;-76
2021/12/17 09:45:58;;;;;;;4.15;3.05;;;;;;;;;;5055456;28;20083;-75
2021/12/17 09:48:27;;;;;;;6.80;3.45;;;;;;;;;;5055148;28;20057;-76
2021/12/17 09:50:55;;;;;;;12.02;3.13;;;;;;;;;;5055708;28;20045;-76
2021/12/17 09:53:23;;;;;;;6.03;3.58;;;;;;;;;;5055001;28;20053;-76
2021/12/17 09:55:51;;;;;;;29.63;4.47;;;;;;;;;;5049807;28;20432;-77
2021/12/17 09:58:20;;;;;;;10.27;3.28;;;;;;;;;;5035850;28;20033;-75
2021/12/17 10:00:48;;;;;;;22.13;3.70;;;;;;;;;;5054465;28;20065;-77
2021/12/17 10:03:16;;;;;;;4.55;3.00;;;;;;;;;;5055972;28;20044;-77
2021/12/17 10:05:46;;;;;;;9.82;3.60;;;;;;;;;;5033890;28;20041;-76
2021/12/17 10:08:16;;;;;;;3.50;2.97;;;;;;;;;;5051848;28;20084;-76
2021/12/17 10:10:45;;;;;;;5.93;2.70;;;;;;;;;;5023580;28;20047;-74
2021/12/17 10:13:14;;;;;;;6.80;3.05;;;;;;;;;;5044293;28;20488;-76
2021/12/17 10:15:46;;;;;;;5.32;3.30;;;;;;;;;;5041803;28;20057;-75
2021/12/17 10:18:14;;;;;;;4.32;3.15;;;;;;;;;;5045764;28;20037;-76
2021/12/17 10:20:45;;;;;;;4.32;3.05;;;;;;;;;;5025681;28;20044;-76
2021/12/17 10:23:13;;;;;;;4.55;3.50;;;;;;;;;;5044771;28;20037;-74
2021/12/17 10:25:44;;;;;;;4.22;2.85;;;;;;;;;;5038353;28;20075;-75
2021/12/17 10:28:15;;;;;;;11.55;5.07;;;;;;;;;;5054017;28;20045;-74
2021/12/17 10:30:47;;;;;;;6.25;3.35;;;;;;;;;;5055694;28;20444;-75
2021/12/17 10:33:18;;;;;;;5.47;2.90;;;;;;;;;;5055448;28;20071;-76
2021/12/17 10:35:48;;;;;;;4.22;2.70;;;;;;;;;;5054715;28;20123;-76
2021/12/17 10:38:25;;;;;;;6.47;2.97;;;;;;;;;;5054915;28;20392;-74
2021/12/17 10:41:04;;;;;;;3.95;2.28;;;;;;;;;;5055179;28;20045;-74
2021/12/17 10:43:38;;;;;;;8.13;2.35;;;;;;;;;;5055207;28;20757;-74
2021/12/17 10:46:12;;;;;;;7.18;2.45;;;;;;;;;;5055596;28;20567;-76
2021/12/17 10:51:24;;;;;;;5.22;2.10;;;;;;;;;;5024530;28;20037;-74
2021/12/17 10:53:56;;;;;;;6.03;1.77;;;;;;;;;;5023707;28;20128;-73
2021/12/17 10:56:24;;;;;;;1.92;1.80;;;;;;;;;;5054321;28;20047;-74
2021/12/17 10:58:56;;;;;;;3.92;1.75;;;;;;;;;;5054195;28;20492;-72
2021/12/17 11:01:35;;;;;;;3.10;2.20;;;;;;;;;;5054200;28;20481;-75
2021/12/17 11:04:10;;;;;;;5.18;2.42;;;;;;;;;;5053707;28;20131;-73
2021/12/17 11:07:10;;;;;;;2.15;1.80;;;;;;;;;;5054505;28;20045;-72
2021/12/17 11:09:38;;;;;;;5.18;2.10;;;;;;;;;;5020923;28;20051;-72
2021/12/17 11:12:07;;;;;;;2.22;2.00;;;;;;;;;;5036332;28;20131;-72
2021/12/17 11:14:35;;;;;;;4.07;2.35;;;;;;;;;;5036161;28;20148;-75
2021/12/17 11:17:02;;;;;;;3.65;2.63;;;;;;;;;;5053891;28;20041;-74
2021/12/17 11:19:31;;;;;;;6.75;2.28;;;;;;;;;;5053527;28;20083;-75
2021/12/17 11:21:59;;;;;;;2.30;2.10;;;;;;;;;;5053962;28;20048;-72
2021/12/17 11:24:26;;;;;;;4.22;2.70;;;;;;;;;;5050881;28;20040;-75
2021/12/17 11:26:54;;;;;;;4.80;2.88;;;;;;;;;;5043907;28;20400;-72
2021/12/17 11:29:22;;;;;;;3.65;2.25;;;;;;;;;;5050265;28;20037;-74
2021/12/17 11:31:50;;;;;;;4.22;2.65;;;;;;;;;;5035922;28;20051;-75
2021/12/17 11:34:19;;;;;;;5.40;2.95;;;;;;;;;;5053456;28;20071;-72
2021/12/17 11:36:47;;;;;;;6.78;3.25;;;;;;;;;;5027267;28;20069;-75
2021/12/17 11:39:17;;;;;;;2.85;2.65;;;;;;;;;;5024997;28;20373;-75
2021/12/17 11:41:53;;;;;;;7.68;2.70;;;;;;;;;;5029880;28;20044;-72
2021/12/17 11:44:27;;;;;;;21.48;4.00;;;;;;;;;;5033729;28;20041;-74
2021/12/17 11:47:06;;;;;;;5.35;2.85;;;;;;;;;;5032764;28;20496;-72
2021/12/17 11:49:38;;;;;;;4.88;2.75;;;;;;;;;;5013824;28;20088;-76
2021/12/17 11:52:06;;;;;;;4.35;2.60;;;;;;;;;;5013844;28;20046;-77
2021/12/17 11:54:34;;;;;;;4.50;2.30;;;;;;;;;;5012936;28;20046;-74
2021/12/17 11:57:07;;;;;;;6.53;2.75;;;;;;;;;;5013397;28;20485;-72
2021/12/17 11:59:37;;;;;;;3.08;2.22;;;;;;;;;;5008905;28;20049;-76
2021/12/17 12:02:17;;;;;;;11.52;2.85;;;;;;;;;;5013462;28;20073;-73
2021/12/17 12:04:50;;;;;;;16.02;2.60;;;;;;;;;;5013189;28;20204;-72
2021/12/17 12:07:24;;;;;;;4.47;2.05;;;;;;;;;;5013292;28;20038;-71
2021/12/17 12:12:24;;;;;;;6.53;3.77;;;;;;;;;;4995665;28;20077;-75
2021/12/17 12:14:51;;;;;;;5.65;2.80;;;;;;;;;;4995450;28;20048;-71
2021/12/17 12:17:37;;;;;;;3.83;2.92;;;;;;;;;;5012660;28;20133;-75
2021/12/17 12:20:06;;;;;;;4.05;2.97;;;;;;;;;;5010894;28;20029;-72
2021/12/17 12:22:34;;;;;;;4.80;2.60;;;;;;;;;;5012658;28;20042;-72
2021/12/17 12:25:30;;;;;;;2.88;2.63;;;;;;;;;;5012838;28;20121;-74
2021/12/17 12:27:58;;;;;;;3.10;2.60;;;;;;;;;;4998581;28;20528;-72
2021/12/17 12:30:35;;;;;;;7.57;2.80;;;;;;;;;;4995622;28;20056;-75
2021/12/17 12:33:07;;;;;;;8.27;3.10;;;;;;;;;;4994987;28;20038;-72
2021/12/17 12:35:35;;;;;;;4.55;2.65;;;;;;;;;;5012660;28;20540;-72
2021/12/17 12:38:16;;;;;;;4.82;3.00;;;;;;;;;;4995039;28;20042;-71
2021/12/17 12:40:51;;;;;;;5.13;3.10;;;;;;;;;;4978990;28;20396;-75
2021/12/17 12:43:29;;;;;;;6.13;3.00;;;;;;;;;;4995252;28;20416;-76
2021/12/17 12:45:57;;;;;;;11.32;2.90;;;;;;;;;;5013059;28;20069;-71
2021/12/17 12:48:42;;;;;;;7.00;2.80;;;;;;;;;;5023863;28;20049;-72
2021/12/17 12:51:22;;;;;;;3.60;2.78;;;;;;;;;;4998023;28;20060;-72
2021/12/17 12:54:07;;;;;;;6.07;3.20;;;;;;;;;;5014967;28;20037;-72
2021/12/17 12:56:38;;;;;;;5.95;2.95;;;;;;;;;;5032145;28;20041;-73
2021/12/17 12:59:07;;;;;;;6.60;2.80;;;;;;;;;;5031816;28;20125;-72
2021/12/17 13:01:34;;;;;;;5.13;3.00;;;;;;;;;;5032233;28;20033;-73
2021/12/17 13:04:07;;;;;;;7.82;2.90;;;;;;;;;;5032309;28;20039;-71
2021/12/17 13:06:36;;;;;;;3.00;2.40;;;;;;;;;;5012617;28;20072;-71
2021/12/17 13:09:04;;;;;;;4.13;2.50;;;;;;;;;;5031675;28;20059;-72
2021/12/17 13:11:43;;;;;;;7.00;2.80;;;;;;;;;;5029782;28;20490;-73
2021/12/17 13:14:17;;;;;;;4.35;2.83;;;;;;;;;;5029159;28;20116;-75
2021/12/17 13:16:55;;;;;;;3.75;2.50;;;;;;;;;;5031901;28;20053;-74
2021/12/17 13:22:40;;;;;;;2.92;2.13;;;;;;;;;;5014571;28;20133;-73
2021/12/17 13:25:03;;;;;;;4.25;2.58;;;;;;;;;;5052118;28;20037;-73
2021/12/17 13:27:30;;;;;;;5.03;2.50;;;;;;;;;;5052623;28;20048;-72
2021/12/17 13:29:58;;;;;;;4.53;2.28;;;;;;;;;;5052751;28;20369;-72
2021/12/17 13:32:28;;;;;;;5.82;2.60;;;;;;;;;;5042304;28;20049;-76
2021/12/17 13:34:58;;;;;;;3.65;2.20;;;;;;;;;;5031610;28;20091;-75
2021/12/17 13:37:30;;;;;;;4.35;2.70;;;;;;;;;;5031297;28;20068;-76
2021/12/17 13:40:00;;;;;;;3.73;2.50;;;;;;;;;;5013433;28;20099;-76
2021/12/17 13:42:28;;;;;;;4.55;2.50;;;;;;;;;;5027475;28;21246;-74
2021/12/17 13:44:59;;;;;;;4.15;2.30;;;;;;;;;;5023161;28;20430;-72
2021/12/17 13:47:32;;;;;;;3.50;2.28;;;;;;;;;;5025505;28;20486;-72
2021/12/17 13:50:01;;;;;;;3.88;2.65;;;;;;;;;;5010884;28;20115;-72
2021/12/17 13:52:36;;;;;;;7.32;2.65;;;;;;;;;;5013648;28;20049;-72
2021/12/17 13:55:05;;;;;;;4.70;2.50;;;;;;;;;;5017269;28;20390;-76
2021/12/17 13:57:33;;;;;;;16.38;2.97;;;;;;;;;;5022102;28;20048;-76
2021/12/17 14:00:06;;;;;;;9.48;2.53;;;;;;;;;;5003433;28;20034;-73
2021/12/17 14:02:39;;;;;;;3.70;2.20;;;;;;;;;;5025484;28;20048;-72
2021/12/17 14:05:07;;;;;;;5.78;2.30;;;;;;;;;;5015121;28;20041;-76
2021/12/17 14:07:35;;;;;;;3.33;2.38;;;;;;;;;;5022045;28;20034;-73
2021/12/17 14:10:15;;;;;;;4.00;2.50;;;;;;;;;;5021098;28;20052;-71
2021/12/17 14:12:44;;;;;;;2.97;2.33;;;;;;;;;;5023878;28;20050;-75
2021/12/17 14:15:33;;;;;;;3.58;2.30;;;;;;;;;;5021553;28;20524;-75
2021/12/17 14:18:02;;;;;;;5.93;2.55;;;;;;;;;;5017520;28;20072;-76
2021/12/17 14:20:37;;;;;;;11.55;2.72;;;;;;;;;;5034984;28;20037;-75
2021/12/17 14:23:06;;;;;;;7.38;2.72;;;;;;;;;;5016635;28;20046;-72
2021/12/17 14:25:36;;;;;;;5.88;2.25;;;;;;;;;;5015986;28;20125;-71
2021/12/17 14:28:17;;;;;;;4.53;2.53;;;;;;;;;;5015426;28;20117;-72
2021/12/17 14:30:59;;;;;;;8.32;2.70;;;;;;;;;;5015599;28;20129;-71
2021/12/17 14:33:31;;;;;;;5.82;2.40;;;;;;;;;;5015208;28;20147;-76
2021/12/17 14:36:00;;;;;;;11.27;2.85;;;;;;;;;;5013918;28;20054;-75
2021/12/17 14:38:35;;;;;;;20.70;4.22;;;;;;;;;;5031484;28;20412;-73
2021/12/17 14:41:05;;;;;;;4.07;2.70;;;;;;;;;;5034960;28;20128;-73
2021/12/17 14:43:47;;;;;;;5.20;2.75;;;;;;;;;;5017206;28;20471;-72
2021/12/17 14:46:20;;;;;;;8.90;2.70;;;;;;;;;;5020052;28;20046;-73
2021/12/17 15:05:06;;;;;;;37.17;4.70;;;;;;;;;;5016998;28;20038;-73
2021/12/17 15:07:34;;;;;;;12.55;2.88;;;;;;;;;;5026325;28;20052;-72
2021/12/17 15:10:03;;;;;;;17.27;4.10;;;;;;;;;;5013930;28;20073;-74
2021/12/17 15:15:04;;;;;;;6.82;2.40;;;;;;;;;;5011794;28;20038;-73
2021/12/17 15:17:35;;;;;;;8.27;4.05;;;;;;;;;;5015588;28;20049;-72
2021/12/17 15:20:18;;;;;;;5.30;2.80;;;;;;;;;;5017342;28;20091;-71
2021/12/17 15:22:45;;;;;;;6.30;3.15;;;;;;;;;;5013017;28;20061;-72
2021/12/17 15:25:13;;;;;;;24.45;4.20;;;;;;;;;;5016342;28;20489;-74
2021/12/17 15:27:42;;;;;;;13.27;5.63;;;;;;;;;;5015508;28;20564;-72
2021/12/17 15:30:12;;;;;;;5.50;3.10;;;;;;;;;;4999375;28;20045;-75
2021/12/17 15:32:40;;;;;;;5.53;3.20;;;;;;;;;;5033404;28;20125;-75
2021/12/17 15:35:11;;;;;;;6.13;3.50;;;;;;;;;;5033430;28;20057;-73
2021/12/17 15:37:40;;;;;;;5.63;3.58;;;;;;;;;;5015689;28;20041;-71
2021/12/17 15:40:08;;;;;;;3.53;3.03;;;;;;;;;;5014804;28;20044;-73
2021/12/17 15:42:36;;;;;;;6.40;3.40;;;;;;;;;;5012863;28;20375;-72
2021/12/17 15:45:04;;;;;;;8.02;4.70;;;;;;;;;;5032898;28;20034;-72
2021/12/17 15:47:32;;;;;;;6.47;3.45;;;;;;;;;;5015134;28;20501;-72
2021/12/17 15:49:59;;;;;;;8.00;3.83;;;;;;;;;;5031282;28;20042;-73
2021/12/17 15:52:33;;;;;;;9.60;3.97;;;;;;;;;;5033395;28;20057;-73
2021/12/17 15:55:00;;;;;;;6.22;3.40;;;;;;;;;;5025082;28;20045;-73
2021/12/17 15:57:28;;;;;;;7.28;3.50;;;;;;;;;;5030239;28;20473;-72
2021/12/17 15:59:56;;;;;;;6.72;4.03;;;;;;;;;;5027780;28;20045;-77
2021/12/17 16:02:24;;;;;;;10.68;4.07;;;;;;;;;;5032883;28;20470;-72
2021/12/17 16:04:52;;;;;;;10.00;3.95;;;;;;;;;;5030476;28;20039;-76
2021/12/17 16:07:19;;;;;;;8.32;3.85;;;;;;;;;;4986176;28;20493;-76
2021/12/17 16:21:18;;;;;;;8.02;4.40;;;;;;;;;;5033107;28;20053;-85
2021/12/17 16:23:39;;;;;;;13.73;4.82;;;;;;;;;;5000876;28;20049;-87
2021/12/17 16:26:11;;;;;;;11.60;4.70;;;;;;;;;;5016378;28;20041;-77
2021/12/17 16:28:45;;;;;;;10.85;5.68;;;;;;;;;;5016587;28;20045;-80
2021/12/17 16:31:21;;;;;;;11.13;6.03;;;;;;;;;;4998919;28;20080;-78
2021/12/17 16:33:51;;;;;;;10.98;5.35;;;;;;;;;;5009120;28;20048;-85
2021/12/17 16:36:21;;;;;;;13.38;5.80;;;;;;;;;;4999649;28;20053;-75
2021/12/17 16:38:49;;;;;;;16.27;6.15;;;;;;;;;;5015139;28;20045;-76
2021/12/17 16:41:24;;;;;;;13.77;5.80;;;;;;;;;;5028031;28;20038;-77
2021/12/17 16:43:59;;;;;;;11.68;5.43;;;;;;;;;;5015327;28;20112;-76
2021/12/17 16:49:04;;;;;;;8.43;5.20;;;;;;;;;;5031677;28;20080;-82
2021/12/17 16:51:33;;;;;;;10.13;5.57;;;;;;;;;;5005872;28;20037;-75
2021/12/17 16:54:02;;;;;;;14.77;5.65;;;;;;;;;;5013664;28;20132;-76
2021/12/17 16:56:32;;;;;;;7.88;5.30;;;;;;;;;;5022019;28;20046;-85
2021/12/17 16:59:00;;;;;;;7.68;5.28;;;;;;;;;;5017043;28;20042;-85
2021/12/17 17:01:29;;;;;;;7.35;5.45;;;;;;;;;;5013234;28;20045;-78
2021/12/17 17:03:59;;;;;;;12.93;6.38;;;;;;;;;;5019421;28;20054;-77
2021/12/17 17:06:33;;;;;;;13.00;6.28;;;;;;;;;;5030002;28;20042;-86
2021/12/17 17:09:06;;;;;;;16.85;6.45;;;;;;;;;;4998838;28;20034;-77
2021/12/17 17:11:35;;;;;;;8.55;5.97;;;;;;;;;;5024259;28;20065;-77
2021/12/17 17:14:03;;;;;;;10.57;7.10;;;;;;;;;;4995448;28;20092;-77
2021/12/17 17:16:32;;;;;;;17.92;7.93;;;;;;;;;;5025609;28;20131;-78
2021/12/17 17:19:00;;;;;;;13.57;8.50;;;;;;;;;;5014554;28;20041;-76
2021/12/17 17:21:30;;;;;;;21.20;8.35;;;;;;;;;;5030313;28;20488;-85
2021/12/17 17:24:00;;;;;;;19.42;8.95;;;;;;;;;;5032864;28;20138;-85
2021/12/17 17:26:28;;;;;;;16.60;9.05;;;;;;;;;;4997365;28;20379;-79
2021/12/17 17:28:57;;;;;;;12.75;8.73;;;;;;;;;;4999382;28;20128;-79
2021/12/17 17:31:24;;;;;;;12.80;8.93;;;;;;;;;;5013006;28;20038;-87
2021/12/17 17:33:53;;;;;;;14.27;8.73;;;;;;;;;;5032427;28;20436;-89
2021/12/17 17:36:24;;;;;;;15.52;9.32;;;;;;;;;;5014963;28;20084;-88
2021/12/17 17:38:55;;;;;;;18.50;9.38;;;;;;;;;;5015123;28;20033;-78
2021/12/17 17:41:25;;;;;;;18.00;8.88;;;;;;;;;;5029689;28;20033;-78
2021/12/17 17:43:53;;;;;;;13.35;8.60;;;;;;;;;;5032549;28;20548;-89
2021/12/17 17:46:22;;;;;;;16.48;9.05;;;;;;;;;;5036680;28;20436;-84
2021/12/17 17:48:50;;;;;;;17.35;9.35;;;;;;;;;;5002241;28;20075;-77
2021/12/17 17:51:18;;;;;;;19.80;10.15;;;;;;;;;;5018127;28;20041;-78
2021/12/17 17:53:45;;;;;;;18.63;10.45;;;;;;;;;;5033133;28;20064;-77
2021/12/17 17:56:15;;;;;;;23.52;10.75;;;;;;;;;;5021798;28;20053;-84
2021/12/17 17:58:43;;;;;;;20.13;11.77;;;;;;;;;;5056275;28;20121;-84
2021/12/17 18:01:14;;;;;;;21.13;11.23;;;;;;;;;;5038120;28;20412;-84
2021/12/17 18:03:42;;;;;;;18.58;11.60;;;;;;;;;;5055467;28;20033;-78
2021/12/17 18:06:09;;;;;;;18.38;10.90;;;;;;;;;;5050788;28;20116;-83
2021/12/17 18:08:41;;;;;;;17.52;10.68;;;;;;;;;;5017740;28;20045;-78
2021/12/17 18:11:09;;;;;;;19.92;10.45;;;;;;;;;;5035806;28;20049;-85
2021/12/17 18:13:37;;;;;;;18.92;10.02;;;;;;;;;;5036018;28;20057;-84
2021/12/17 18:16:05;;;;;;;18.10;10.10;;;;;;;;;;5036146;28;20045;-85
2021/12/17 18:18:35;;;;;;;16.90;10.18;;;;;;;;;;5017962;28;20511;-86
2021/12/17 18:21:03;;;;;;;18.80;9.73;;;;;;;;;;5035390;28;20456;-76
2021/12/17 18:23:31;;;;;;;18.90;9.57;;;;;;;;;;5017994;28;20037;-84
2021/12/17 18:25:59;;;;;;;16.58;10.18;;;;;;;;;;5005342;28;20068;-76
2021/12/17 18:28:26;;;;;;;14.77;9.77;;;;;;;;;;5035720;28;20038;-77
2021/12/17 18:30:55;;;;;;;15.07;8.93;;;;;;;;;;5017920;28;20049;-84
2021/12/17 18:33:22;;;;;;;13.95;9.32;;;;;;;;;;5035597;28;20056;-78
2021/12/17 18:35:51;;;;;;;21.05;9.93;;;;;;;;;;5001560;28;20477;-85
2021/12/17 18:38:19;;;;;;;14.75;9.15;;;;;;;;;;4998566;28;20069;-85
2021/12/17 18:40:54;;;;;;;15.23;10.45;;;;;;;;;;5011038;28;20041;-83